createdAt,value
2019-05-07T00:00:25.104Z,64.20
2019-05-07T00:02:54.803Z,64.20
2019-05-07T00:05:24.708Z,64.20
2019-05-07T00:07:54.343Z,64.00
2019-05-07T00:10:24.870Z,64.30
2019-05-07T00:12:55.077Z,64.00
2019-05-07T00:15:26.051Z,64.70
2019-05-07T00:17:55.980Z,64.60
2019-05-07T00:20:25.763Z,64.70
2019-05-07T00:22:55.694Z,65.10
2019-05-07T00:25:25.320Z,65.50
2019-05-07T00:27:55.231Z,65.80
2019-05-07T00:30:24.853Z,66.00
2019-05-07T00:32:54.672Z,65.70
2019-05-07T00:35:26.027Z,66.00
2019-05-07T00:37:57.432Z,66.20
2019-05-07T00:40:28.895Z,66.20
2019-05-07T00:43:02.582Z,66.50
2019-05-07T00:45:33.271Z,67.20
2019-05-07T00:48:03.171Z,67.20
2019-05-07T00:50:35.489Z,67.70
2019-05-07T00:53:05.483Z,67.70
2019-05-07T00:55:35.347Z,68.00
2019-05-07T00:58:05.260Z,68.30
2019-05-07T01:00:35.227Z,68.20
2019-05-07T01:03:05.094Z,68.30
2019-05-07T01:05:34.895Z,68.20
2019-05-07T01:08:04.739Z,68.10
2019-05-07T01:10:34.572Z,68.10
2019-05-07T01:13:04.596Z,67.80
2019-05-07T01:15:34.785Z,67.90
2019-05-07T01:18:04.840Z,67.90
2019-05-07T01:20:34.533Z,68.00
2019-05-07T01:23:04.349Z,68.10
2019-05-07T01:25:34.447Z,68.10
2019-05-07T01:28:04.286Z,68.00
2019-05-07T01:30:33.981Z,68.30
2019-05-07T01:33:05.427Z,68.30
2019-05-07T01:35:36.947Z,68.50
2019-05-07T01:38:06.774Z,67.90
2019-05-07T01:40:36.532Z,68.00
2019-05-07T01:43:06.323Z,67.40
2019-05-07T01:45:46.470Z,67.00
2019-05-07T01:48:09.091Z,66.40
2019-05-07T01:50:38.864Z,66.50
2019-05-07T01:53:08.677Z,66.30
2019-05-07T01:55:38.492Z,66.00
2019-05-07T01:58:08.292Z,66.30
2019-05-07T02:00:38.063Z,66.50
2019-05-07T02:03:09.504Z,66.30
2019-05-07T02:05:42.446Z,66.50
2019-05-07T02:08:14.088Z,66.40
2019-05-07T02:10:45.454Z,66.20
2019-05-07T02:13:15.376Z,66.20
2019-05-07T02:15:57.459Z,66.10
2019-05-07T02:18:16.639Z,66.30
2019-05-07T02:20:46.348Z,66.00
2019-05-07T02:23:15.984Z,66.20
2019-05-07T02:25:45.791Z,66.10
2019-05-07T02:28:15.695Z,65.80
2019-05-07T02:30:45.496Z,65.30
2019-05-07T02:33:15.340Z,64.90
2019-05-07T02:35:45.157Z,65.20
2019-05-07T02:38:16.505Z,64.30
2019-05-07T02:43:33.718Z,63.60
2019-05-07T02:46:21.429Z,63.80
2019-05-07T02:48:38.565Z,63.40
2019-05-07T02:51:13.124Z,63.40
2019-05-07T02:53:43.246Z,63.50
2019-05-07T02:56:13.317Z,62.50
2019-05-07T02:58:44.084Z,62.20
2019-05-07T03:01:14.129Z,61.30
2019-05-07T03:03:44.961Z,61.70
2019-05-07T03:06:15.003Z,61.50
2019-05-07T03:08:45.268Z,61.30
2019-05-07T03:11:16.252Z,60.80
2019-05-07T03:13:46.037Z,59.90
2019-05-07T03:16:15.999Z,59.80
2019-05-07T03:18:45.845Z,59.70
2019-05-07T03:21:17.177Z,59.40
2019-05-07T03:23:49.803Z,59.20
2019-05-07T03:26:23.104Z,59.30
2019-05-07T03:28:54.725Z,59.20
2019-05-07T03:31:26.754Z,59.20
2019-05-07T03:33:57.506Z,59.30
2019-05-07T03:36:28.807Z,59.60
2019-05-07T03:38:58.637Z,60.00
2019-05-07T03:41:28.447Z,60.10
2019-05-07T03:43:59.789Z,59.90
2019-05-07T03:46:29.551Z,60.40
2019-05-07T03:48:59.447Z,60.80
2019-05-07T03:51:29.147Z,61.40
2019-05-07T03:53:59.098Z,62.10
2019-05-07T03:56:28.832Z,63.30
2019-05-07T03:58:58.753Z,62.90
2019-05-07T04:01:28.557Z,63.00
2019-05-07T04:03:59.380Z,63.20
2019-05-07T04:06:29.140Z,63.30
2019-05-07T04:08:59.049Z,63.40
2019-05-07T04:11:28.853Z,63.90
2019-05-07T04:13:58.574Z,64.50
2019-05-07T04:16:28.398Z,64.30
2019-05-07T04:18:58.222Z,64.30
2019-05-07T04:21:28.093Z,64.50
2019-05-07T04:23:59.301Z,64.80
2019-05-07T04:26:33.629Z,65.00
2019-05-07T04:29:05.650Z,65.20
2019-05-07T04:31:36.929Z,65.10
2019-05-07T04:34:08.375Z,65.10
2019-05-07T04:36:39.745Z,65.10
2019-05-07T04:39:09.649Z,64.60
2019-05-07T04:41:39.391Z,64.60
2019-05-07T04:44:09.354Z,64.30
2019-05-07T04:46:47.557Z,63.70
2019-05-07T04:49:13.397Z,62.90
2019-05-07T04:51:46.735Z,62.40
2019-05-07T04:54:23.455Z,62.20
2019-05-07T04:56:53.113Z,62.00
2019-05-07T04:59:23.797Z,61.90
2019-05-07T05:01:55.509Z,61.50
2019-05-07T05:04:30.535Z,60.90
2019-05-07T05:06:56.718Z,60.40
2019-05-07T05:09:26.370Z,59.80
2019-05-07T05:11:56.113Z,59.60
2019-05-07T05:14:25.914Z,59.40
2019-05-07T05:16:55.580Z,59.10
2019-05-07T05:19:25.301Z,59.00
2019-05-07T05:21:56.595Z,59.10
2019-05-07T05:24:27.928Z,59.80
2019-05-07T05:26:58.030Z,59.80
2019-05-07T05:29:27.627Z,60.00
2019-05-07T05:31:58.228Z,60.20
2019-05-07T05:34:28.017Z,59.80
2019-05-07T05:36:57.881Z,60.00
2019-05-07T05:39:27.763Z,60.30
2019-05-07T05:41:59.252Z,60.90
2019-05-07T05:44:32.008Z,60.40
2019-05-07T05:47:02.490Z,60.30
2019-05-07T05:49:32.451Z,60.50
2019-05-07T05:52:03.815Z,60.20
2019-05-07T05:54:35.322Z,60.20
2019-05-07T05:59:57.237Z,60.00
2019-05-07T06:02:28.639Z,60.30
2019-05-07T06:05:02.196Z,60.50
2019-05-07T06:07:33.355Z,60.40
2019-05-07T06:10:06.431Z,60.50
2019-05-07T06:12:37.954Z,60.50
2019-05-07T06:15:09.636Z,59.80
2019-05-07T06:17:42.496Z,60.00
2019-05-07T06:20:16.839Z,60.30
2019-05-07T06:22:47.989Z,59.40
2019-05-07T06:25:19.561Z,58.80
2019-05-07T06:27:49.383Z,58.80
2019-05-07T06:30:19.671Z,58.60
2019-05-07T06:32:49.425Z,59.10
2019-05-07T06:35:19.529Z,58.90
2019-05-07T06:37:49.259Z,58.80
2019-05-07T06:40:26.629Z,58.40
2019-05-07T06:42:55.605Z,57.90
2019-05-07T06:48:14.340Z,57.70
2019-05-07T06:50:45.815Z,56.20
2019-05-07T06:53:15.685Z,56.10
2019-05-07T06:55:45.464Z,56.30
2019-05-07T06:58:15.211Z,56.00
2019-05-07T07:00:47.002Z,56.50
2019-05-07T07:03:18.404Z,55.90
2019-05-07T07:08:35.439Z,56.50
2019-05-07T07:11:06.897Z,56.10
2019-05-07T07:13:36.901Z,56.10
2019-05-07T07:16:06.687Z,55.00
2019-05-07T07:18:48.612Z,54.50
2019-05-07T07:21:08.170Z,53.00
2019-05-07T07:23:38.036Z,51.30
2019-05-07T07:26:08.017Z,51.50
2019-05-07T07:28:38.019Z,50.30
2019-05-07T07:31:09.702Z,48.70
2019-05-07T07:33:41.120Z,48.20
2019-05-07T07:36:12.006Z,47.70
2019-05-07T07:38:42.132Z,47.90
2019-05-07T07:41:13.684Z,47.10
2019-05-07T07:43:43.649Z,45.00
2019-05-07T07:46:16.415Z,44.80
2019-05-07T07:48:46.112Z,42.80
2019-05-07T07:51:16.074Z,43.00
2019-05-07T07:53:45.979Z,40.10
2019-05-07T07:56:18.461Z,41.60
2019-05-07T07:58:51.935Z,41.50
2019-05-07T08:01:23.221Z,42.40
2019-05-07T08:03:53.072Z,41.60
2019-05-07T08:06:22.894Z,39.70
2019-05-07T08:08:53.017Z,38.90
2019-05-07T08:11:23.028Z,38.10
2019-05-07T08:13:52.954Z,38.60
2019-05-07T08:16:23.028Z,38.60
2019-05-07T08:18:52.912Z,38.30
2019-05-07T08:21:22.928Z,37.00
2019-05-07T08:23:52.950Z,37.90
2019-05-07T08:26:22.885Z,38.00
2019-05-07T08:28:52.744Z,39.50
2019-05-07T08:31:24.188Z,39.00
2019-05-07T08:33:56.025Z,38.20
2019-05-07T08:36:25.593Z,37.40
2019-05-07T08:38:56.589Z,36.90
2019-05-07T08:41:28.102Z,34.90
2019-05-07T08:44:11.240Z,35.00
2019-05-07T08:46:32.870Z,34.10
2019-05-07T08:49:04.163Z,33.80
2019-05-07T08:51:34.076Z,33.20
2019-05-07T08:54:04.930Z,31.40
2019-05-07T08:56:36.082Z,31.50
2019-05-07T08:59:06.961Z,31.10
2019-05-07T09:01:39.377Z,29.40
2019-05-07T09:04:09.289Z,29.20
2019-05-07T09:06:39.379Z,29.20
2019-05-07T09:09:13.119Z,27.80
2019-05-07T09:11:43.774Z,28.60
2019-05-07T09:14:13.747Z,27.60
2019-05-07T09:16:43.692Z,28.00
2019-05-07T09:19:13.573Z,27.10
2019-05-07T09:21:43.434Z,26.80
2019-05-07T09:24:13.328Z,25.90
2019-05-07T09:26:44.816Z,27.10
2019-05-07T09:29:16.039Z,26.10
2019-05-07T09:31:47.762Z,26.10
2019-05-07T09:34:19.422Z,27.70
2019-05-07T09:36:51.825Z,28.60
2019-05-07T09:39:22.165Z,28.30
2019-05-07T09:41:52.639Z,29.40
2019-05-07T09:44:22.719Z,30.50
2019-05-07T09:46:53.109Z,32.50
2019-05-07T09:49:23.022Z,33.40
2019-05-07T09:51:52.669Z,34.00
2019-05-07T09:54:23.108Z,33.10
2019-05-07T09:56:53.072Z,33.60
2019-05-07T09:59:23.049Z,33.40
2019-05-07T10:01:52.938Z,33.20
2019-05-07T10:04:23.032Z,32.00
2019-05-07T10:06:52.988Z,31.60
2019-05-07T10:09:22.838Z,31.90
2019-05-07T10:11:54.561Z,30.20
2019-05-07T10:14:24.487Z,27.60
2019-05-07T10:19:43.426Z,27.60
2019-05-07T10:22:13.427Z,27.00
2019-05-07T10:24:43.341Z,26.30
2019-05-07T10:27:13.234Z,26.40
2019-05-07T10:29:43.087Z,27.10
2019-05-07T10:32:13.105Z,27.00
2019-05-07T10:34:42.935Z,26.80
2019-05-07T10:37:12.909Z,28.10
2019-05-07T10:39:43.103Z,28.40
2019-05-07T10:42:14.104Z,29.20
2019-05-07T10:44:47.015Z,29.70
2019-05-07T10:47:18.487Z,29.30
2019-05-07T10:49:52.521Z,29.60
2019-05-07T10:52:22.831Z,29.10
2019-05-07T10:54:59.669Z,28.70
2019-05-07T10:57:24.176Z,27.90
2019-05-07T11:00:00.026Z,28.30
2019-05-07T11:02:32.578Z,27.90
2019-05-07T11:05:02.443Z,28.50
2019-05-07T11:07:32.813Z,28.80
2019-05-07T11:10:03.291Z,29.90
2019-05-07T11:12:33.137Z,30.20
2019-05-07T11:15:03.183Z,30.10
2019-05-07T11:17:34.647Z,30.10
2019-05-07T11:20:06.416Z,30.30
2019-05-07T11:22:36.361Z,29.90
2019-05-07T11:25:08.158Z,30.00
2019-05-07T11:27:38.135Z,29.50
2019-05-07T11:30:11.793Z,29.70
2019-05-07T11:32:42.929Z,30.00
2019-05-07T11:35:14.773Z,29.40
2019-05-07T11:37:44.747Z,29.10
2019-05-07T11:40:19.894Z,29.30
2019-05-07T11:42:51.981Z,28.20
2019-05-07T11:45:23.181Z,28.80
2019-05-07T11:47:52.972Z,29.00
2019-05-07T11:50:24.385Z,29.00
2019-05-07T11:52:55.837Z,28.90
2019-05-07T11:55:25.823Z,28.50
2019-05-07T11:57:55.765Z,29.30
2019-05-07T12:00:27.359Z,28.90
2019-05-07T12:02:57.272Z,26.20
2019-05-07T12:05:27.188Z,26.30
2019-05-07T12:07:57.019Z,27.10
2019-05-07T12:10:27.812Z,27.20
2019-05-07T12:12:57.678Z,27.00
2019-05-07T12:15:27.604Z,26.60
2019-05-07T12:17:57.488Z,26.90
2019-05-07T12:20:27.371Z,26.90
2019-05-07T12:22:57.089Z,26.70
2019-05-07T12:25:26.918Z,25.50
2019-05-07T12:27:56.932Z,25.30
2019-05-07T12:30:32.531Z,25.90
2019-05-07T12:33:03.458Z,25.70
2019-05-07T12:35:33.637Z,26.60
2019-05-07T12:38:04.264Z,27.20
2019-05-07T12:40:34.750Z,28.10
2019-05-07T12:43:04.676Z,28.50
2019-05-07T12:45:34.563Z,27.70
2019-05-07T12:48:04.498Z,27.90
2019-05-07T12:50:35.243Z,28.20
2019-05-07T12:53:06.728Z,27.30
2019-05-07T12:58:26.184Z,26.40
2019-05-07T13:00:57.656Z,24.00
2019-05-07T13:06:16.293Z,23.30
2019-05-07T13:08:46.182Z,21.90
2019-05-07T13:11:16.096Z,21.00
2019-05-07T13:13:46.048Z,21.20
2019-05-07T13:16:15.922Z,21.40
2019-05-07T13:18:45.840Z,22.50
2019-05-07T13:21:15.728Z,22.20
2019-05-07T13:23:45.540Z,20.70
2019-05-07T13:26:15.391Z,20.30
2019-05-07T13:28:45.337Z,20.70
2019-05-07T13:31:16.603Z,21.70
2019-05-07T13:33:47.292Z,21.90
2019-05-07T13:36:17.500Z,22.60
2019-05-07T13:38:49.254Z,22.60
2019-05-07T13:41:22.764Z,23.20
2019-05-07T13:43:54.273Z,23.70
2019-05-07T13:46:24.089Z,23.60
2019-05-07T13:48:54.413Z,24.10
2019-05-07T13:51:24.421Z,24.40
2019-05-07T13:53:54.156Z,22.90
2019-05-07T13:56:24.135Z,23.00
2019-05-07T13:58:54.037Z,24.00
2019-05-07T14:01:25.484Z,25.10
2019-05-07T14:03:55.644Z,24.00
2019-05-07T14:06:27.309Z,23.10
2019-05-07T14:08:57.239Z,22.30
2019-05-07T14:11:27.146Z,22.10
2019-05-07T14:13:57.352Z,22.80
2019-05-07T14:16:27.286Z,22.70
2019-05-07T14:18:57.204Z,23.40
2019-05-07T14:21:27.107Z,24.00
2019-05-07T14:23:57.022Z,23.70
2019-05-07T14:26:26.905Z,22.60
2019-05-07T14:28:56.824Z,22.00
2019-05-07T14:31:26.804Z,22.10
2019-05-07T14:33:58.223Z,22.90
2019-05-07T14:36:31.845Z,23.40
2019-05-07T14:39:02.444Z,23.00
2019-05-07T14:41:33.882Z,23.50
2019-05-07T14:44:06.512Z,24.00
2019-05-07T14:46:49.759Z,23.40
2019-05-07T14:49:08.260Z,23.60
2019-05-07T14:51:38.244Z,23.70
2019-05-07T14:54:08.111Z,23.20
2019-05-07T14:56:38.093Z,22.30
2019-05-07T14:59:08.037Z,22.80
2019-05-07T15:01:38.234Z,22.50
2019-05-07T15:04:08.505Z,23.30
2019-05-07T15:06:38.399Z,24.80
2019-05-07T15:09:12.139Z,25.50
2019-05-07T15:11:42.625Z,24.80
2019-05-07T15:14:12.678Z,24.60
2019-05-07T15:16:42.828Z,24.40
2019-05-07T15:19:13.298Z,23.50
2019-05-07T15:21:43.216Z,20.90
2019-05-07T15:24:14.649Z,19.90
2019-05-07T15:26:44.733Z,20.90
2019-05-07T15:29:14.815Z,22.00
2019-05-07T15:31:46.304Z,22.70
2019-05-07T15:34:16.162Z,23.30
2019-05-07T15:36:46.076Z,24.30
2019-05-07T15:39:15.973Z,25.10
2019-05-07T15:41:46.173Z,24.80
2019-05-07T15:44:16.064Z,25.40
2019-05-07T15:46:45.852Z,25.00
2019-05-07T15:49:15.574Z,25.20
2019-05-07T15:51:45.359Z,25.20
2019-05-07T15:54:15.179Z,25.40
2019-05-07T15:56:44.997Z,26.00
2019-05-07T15:59:16.336Z,26.30
2019-05-07T16:01:46.042Z,26.30
2019-05-07T16:04:21.861Z,26.40
2019-05-07T16:06:47.108Z,25.70
2019-05-07T16:09:17.128Z,26.00
2019-05-07T16:11:47.045Z,26.30
2019-05-07T16:14:18.500Z,26.30
2019-05-07T16:16:48.403Z,26.00
2019-05-07T16:19:19.772Z,25.40
2019-05-07T16:21:49.680Z,26.10
2019-05-07T16:24:19.553Z,26.20
2019-05-07T16:26:52.368Z,26.00
2019-05-07T16:29:23.876Z,26.10
2019-05-07T16:31:55.035Z,26.30
2019-05-07T16:34:24.873Z,26.70
2019-05-07T16:36:54.670Z,27.10
2019-05-07T16:39:24.471Z,27.40
2019-05-07T16:41:54.321Z,26.60
2019-05-07T16:44:24.165Z,25.90
2019-05-07T16:46:53.858Z,25.40
2019-05-07T16:49:23.398Z,25.10
2019-05-07T16:51:53.208Z,26.30
2019-05-07T16:54:23.128Z,26.10
2019-05-07T16:56:54.430Z,26.40
2019-05-07T16:59:25.324Z,27.10
2019-05-07T17:01:56.535Z,27.40
2019-05-07T17:04:26.277Z,28.00
2019-05-07T17:06:56.935Z,28.20
2019-05-07T17:09:28.127Z,26.80
2019-05-07T17:11:59.531Z,26.80
2019-05-07T17:14:29.339Z,27.20
2019-05-07T17:16:59.172Z,27.30
2019-05-07T17:19:28.940Z,27.60
2019-05-07T17:21:58.712Z,27.20
2019-05-07T17:24:28.915Z,26.80
2019-05-07T17:26:58.895Z,27.00
2019-05-07T17:29:28.683Z,27.50
2019-05-07T17:31:58.530Z,27.30
2019-05-07T17:34:28.314Z,27.60
2019-05-07T17:36:58.502Z,27.60
2019-05-07T17:39:28.590Z,27.90
2019-05-07T17:41:58.525Z,28.20
2019-05-07T17:44:29.590Z,28.30
2019-05-07T17:47:01.788Z,28.60
2019-05-07T17:49:32.374Z,28.40
2019-05-07T17:52:04.364Z,29.10
2019-05-07T17:54:35.258Z,29.20
2019-05-07T17:57:05.197Z,29.00
2019-05-07T17:59:35.033Z,29.20
2019-05-07T18:02:07.474Z,29.40
2019-05-07T18:04:50.472Z,29.50
2019-05-07T18:07:11.992Z,29.70
2019-05-07T18:09:42.476Z,29.70
2019-05-07T18:12:13.259Z,30.20
2019-05-07T18:14:43.215Z,30.50
2019-05-07T18:17:14.351Z,30.90
2019-05-07T18:19:45.251Z,31.00
2019-05-07T18:22:15.115Z,31.40
2019-05-07T18:24:45.008Z,32.00
2019-05-07T18:27:16.447Z,32.50
2019-05-07T18:29:46.260Z,32.60
2019-05-07T18:32:16.175Z,32.40
2019-05-07T18:34:46.051Z,32.60
2019-05-07T18:37:19.163Z,32.70
2019-05-07T18:39:47.510Z,32.80
2019-05-07T18:42:17.424Z,32.90
2019-05-07T18:44:47.170Z,33.40
2019-05-07T18:47:17.115Z,33.10
2019-05-07T18:49:47.126Z,33.20
2019-05-07T18:52:17.065Z,33.00
2019-05-07T18:54:47.992Z,33.70
2019-05-07T18:57:18.041Z,33.80
2019-05-07T18:59:47.920Z,33.90
2019-05-07T19:02:17.840Z,34.40
2019-05-07T19:04:47.463Z,34.60
2019-05-07T19:07:17.399Z,35.20
2019-05-07T19:09:47.918Z,35.20
2019-05-07T19:12:22.342Z,35.70
2019-05-07T19:14:51.956Z,36.10
2019-05-07T19:17:22.210Z,36.80
2019-05-07T19:19:53.283Z,37.00
2019-05-07T19:22:23.095Z,37.50
2019-05-07T19:24:53.719Z,37.20
2019-05-07T19:27:23.552Z,37.80
2019-05-07T19:29:53.717Z,37.50
2019-05-07T19:32:23.804Z,38.10
2019-05-07T19:34:53.670Z,38.20
2019-05-07T19:37:23.507Z,38.60
2019-05-07T19:39:53.499Z,38.80
2019-05-07T19:42:23.704Z,39.00
2019-05-07T19:44:53.882Z,39.70
2019-05-07T19:47:23.786Z,39.70
2019-05-07T19:49:54.308Z,40.20
2019-05-07T19:52:25.043Z,40.50
2019-05-07T19:55:00.811Z,40.60
2019-05-07T19:57:27.951Z,40.40
2019-05-07T19:59:57.834Z,40.60
2019-05-07T20:02:29.260Z,41.20
2019-05-07T20:04:59.216Z,41.10
2019-05-07T20:07:29.133Z,41.30
2019-05-07T20:09:59.704Z,42.00
2019-05-07T20:12:29.558Z,41.50
2019-05-07T20:15:02.726Z,41.90
2019-05-07T20:17:34.030Z,42.60
2019-05-07T20:20:06.352Z,43.00
2019-05-07T20:22:36.267Z,43.40
2019-05-07T20:25:16.377Z,44.00
2019-05-07T20:27:37.584Z,44.20
2019-05-07T20:30:07.686Z,44.40
2019-05-07T20:32:39.166Z,44.50
2019-05-07T20:35:09.146Z,44.60
2019-05-07T20:37:38.861Z,44.80
2019-05-07T20:40:08.943Z,45.20
2019-05-07T20:42:38.810Z,45.40
2019-05-07T20:45:08.702Z,46.10
2019-05-07T20:47:38.573Z,46.20
2019-05-07T20:50:08.667Z,46.50
2019-05-07T20:52:38.912Z,47.20
2019-05-07T20:55:12.683Z,47.10
2019-05-07T20:57:43.488Z,47.30
2019-05-07T21:00:17.072Z,47.60
2019-05-07T21:02:49.442Z,47.70
2019-05-07T21:05:19.170Z,47.80
2019-05-07T21:07:48.946Z,48.00
2019-05-07T21:10:18.857Z,48.10
2019-05-07T21:12:48.646Z,48.50
2019-05-07T21:15:18.387Z,48.10
2019-05-07T21:17:48.270Z,48.20
2019-05-07T21:20:18.032Z,48.40
2019-05-07T21:22:47.811Z,48.20
2019-05-07T21:25:17.679Z,48.40
2019-05-07T21:27:47.478Z,48.00
2019-05-07T21:30:17.681Z,48.00
2019-05-07T21:32:48.418Z,47.80
2019-05-07T21:35:18.216Z,48.10
2019-05-07T21:37:47.979Z,47.80
2019-05-07T21:40:17.891Z,47.80
2019-05-07T21:42:47.531Z,48.10
2019-05-07T21:45:17.418Z,48.20
2019-05-07T21:47:47.277Z,48.10
2019-05-07T21:50:17.118Z,47.90
2019-05-07T21:52:48.703Z,48.30
2019-05-07T21:55:22.434Z,48.30
2019-05-07T21:57:54.640Z,48.50
2019-05-07T22:00:25.801Z,49.10
2019-05-07T22:02:58.718Z,49.20
2019-05-07T22:05:28.493Z,49.30
2019-05-07T22:07:58.199Z,49.20
2019-05-07T22:10:28.068Z,49.20
2019-05-07T22:12:57.992Z,49.80
2019-05-07T22:15:27.811Z,49.80
2019-05-07T22:17:57.668Z,50.10
2019-05-07T22:20:27.433Z,50.40
2019-05-07T22:22:57.279Z,50.70
2019-05-07T22:25:27.206Z,51.00
2019-05-07T22:27:58.548Z,51.00
2019-05-07T22:30:29.876Z,51.30
2019-05-07T22:33:02.470Z,51.20
2019-05-07T22:35:33.884Z,51.60
2019-05-07T22:38:05.310Z,51.80
2019-05-07T22:40:36.561Z,52.30
2019-05-07T22:43:07.920Z,52.60
2019-05-07T22:45:37.813Z,53.00
2019-05-07T22:48:07.743Z,52.90
2019-05-07T22:50:37.601Z,53.20
2019-05-07T22:53:07.352Z,53.40
2019-05-07T22:55:37.207Z,53.90
2019-05-07T22:58:08.634Z,54.00
2019-05-07T23:00:42.538Z,54.30
2019-05-07T23:03:12.423Z,54.60
2019-05-07T23:05:44.948Z,55.00
2019-05-07T23:08:13.885Z,54.80
2019-05-07T23:10:44.566Z,54.90
2019-05-07T23:13:14.699Z,55.10
2019-05-07T23:15:44.597Z,55.30
2019-05-07T23:18:14.256Z,56.00
2019-05-07T23:20:44.022Z,56.20
2019-05-07T23:23:14.240Z,56.50
2019-05-07T23:25:44.179Z,56.90
2019-05-07T23:28:13.955Z,56.80
2019-05-07T23:30:44.328Z,57.00
2019-05-07T23:33:14.576Z,56.70
2019-05-07T23:35:44.315Z,57.20
2019-05-07T23:38:15.894Z,57.30
2019-05-07T23:40:46.943Z,57.30
2019-05-07T23:43:18.354Z,57.10
2019-05-07T23:45:48.138Z,57.00
2019-05-07T23:48:18.050Z,57.10
2019-05-07T23:50:47.841Z,57.40
2019-05-07T23:53:17.603Z,57.90
2019-05-07T23:55:47.383Z,59.20
2019-05-07T23:58:17.213Z,59.00
